Time;durP1;ratioP1;P1;durP2;ratioP2;P2;SDS_P1;SDS_P2;PMS_P1;PMS_P2;Temp;Humidity;BMP_temperature;BMP_pressure;BME280_temperature;BME280_humidity;BME280_pressure;Samples;Min_cycle;Max_cycle;Signal;HPM_P1;HPM_P2
2023/12/29 00:00:58;;;;;;;0.80;0.50;;;;;;;11.78;69.12;100181.50;10415904;28;20061;-65
2023/12/29 00:06:02;;;;;;;1.23;0.60;;;;;;;11.66;69.25;100162.28;10413339;28;20037;-69
2023/12/29 00:11:04;;;;;;;2.55;0.75;;;;;;;11.49;69.58;100176.97;10416771;28;20045;-70
2023/12/29 00:16:06;;;;;;;2.28;0.80;;;;;;;11.47;69.43;100163.72;10415511;28;20037;-70
2023/12/29 00:21:07;;;;;;;2.53;0.70;;;;;;;11.44;69.97;100165.94;10414039;28;20045;-68
2023/12/29 00:26:09;;;;;;;0.90;0.80;;;;;;;11.31;70.02;100147.75;10421246;28;20053;-68
2023/12/29 00:31:17;;;;;;;0.95;0.70;;;;;;;11.18;69.78;100145.72;10418981;28;20118;-70
2023/12/29 00:36:20;;;;;;;2.80;1.00;;;;;;;11.07;70.35;100144.28;10412697;28;20051;-61
2023/12/29 00:41:21;;;;;;;1.15;0.80;;;;;;;10.96;70.02;100135.84;10419211;28;20052;-60
2023/12/29 00:46:22;;;;;;;2.97;1.00;;;;;;;10.87;70.31;100117.09;10413032;28;20048;-65
2023/12/29 00:51:24;;;;;;;1.98;1.27;;;;;;;10.77;70.01;100124.59;10417641;28;20073;-62
2023/12/29 00:56:25;;;;;;;2.47;0.88;;;;;;;10.75;69.90;100117.75;10413282;28;20056;-62
2023/12/29 01:01:27;;;;;;;1.15;0.80;;;;;;;10.65;70.10;100131.44;10413704;28;20046;-61
2023/12/29 01:06:28;;;;;;;2.58;0.90;;;;;;;10.61;69.78;100114.03;10423085;28;20048;-62
2023/12/29 01:11:30;;;;;;;1.95;0.88;;;;;;;10.60;69.71;100102.41;10425729;28;20040;-60
2023/12/29 01:16:31;;;;;;;1.10;0.80;;;;;;;10.64;69.87;100111.81;10426150;28;20057;-61
2023/12/29 01:21:33;;;;;;;2.25;0.70;;;;;;;10.57;69.56;100108.16;10426887;28;20041;-62
2023/12/29 01:26:39;;;;;;;4.32;0.93;;;;;;;10.63;69.65;100118.19;10419535;28;20049;-62
2023/12/29 01:31:40;;;;;;;1.60;0.70;;;;;;;10.59;69.78;100118.75;10424828;28;20033;-61
2023/12/29 01:36:42;;;;;;;3.28;0.88;;;;;;;10.66;69.51;100127.72;10423914;28;20042;-61
2023/12/29 01:41:44;;;;;;;1.00;0.60;;;;;;;10.81;69.20;100127.78;10423387;28;20054;-61
2023/12/29 01:46:46;;;;;;;1.23;0.70;;;;;;;11.05;68.34;100115.91;10427658;28;20041;-70
2023/12/29 01:51:54;;;;;;;2.95;0.60;;;;;;;11.06;68.21;100123.81;10421619;28;20158;-67
2023/12/29 01:56:59;;;;;;;1.50;0.68;;;;;;;11.24;67.79;100128.00;10422224;28;20045;-69
2023/12/29 02:02:01;;;;;;;1.63;0.88;;;;;;;11.36;67.52;100106.84;10415844;28;20052;-65
2023/12/29 02:07:03;;;;;;;3.03;0.70;;;;;;;11.37;67.30;100103.09;10419522;28;20069;-68
2023/12/29 02:12:05;;;;;;;0.82;0.52;;;;;;;11.21;68.17;100101.44;10423961;28;20072;-70
2023/12/29 02:17:13;;;;;;;1.60;0.57;;;;;;;11.31;67.94;100096.63;10419483;28;20148;-70
2023/12/29 02:22:15;;;;;;;1.50;0.60;;;;;;;11.14;68.17;100096.00;10428332;28;20475;-69
2023/12/29 02:27:31;;;;;;;2.67;0.55;;;;;;;11.19;67.58;100085.50;10420628;28;20052;-68
2023/12/29 02:32:36;;;;;;;3.85;0.60;;;;;;;11.20;67.49;100097.94;10413300;28;20111;-69
2023/12/29 02:37:39;;;;;;;1.27;0.60;;;;;;;11.18;67.57;100102.66;10418132;28;20088;-67
2023/12/29 02:42:47;;;;;;;1.08;0.60;;;;;;;11.25;66.95;100098.19;10417829;28;20053;-70
2023/12/29 02:47:49;;;;;;;3.17;0.60;;;;;;;11.18;67.35;100102.66;10416061;28;20115;-66
2023/12/29 02:52:50;;;;;;;2.47;0.77;;;;;;;11.08;67.45;100118.25;10418701;28;20052;-69
2023/12/29 02:57:52;;;;;;;2.55;1.15;;;;;;;11.12;66.80;100114.16;10414058;28;20057;-63
2023/12/29 03:02:53;;;;;;;0.93;0.43;;;;;;;11.05;66.88;100107.84;10413449;28;20041;-65
2023/12/29 03:07:55;;;;;;;1.40;0.47;;;;;;;10.99;66.73;100100.53;10418655;28;20148;-64
2023/12/29 03:12:57;;;;;;;1.73;0.70;;;;;;;10.94;66.68;100095.72;10418223;28;20052;-64
2023/12/29 03:17:58;;;;;;;4.95;0.50;;;;;;;10.89;66.73;100090.03;10418598;28;20103;-63
2023/12/29 03:23:00;;;;;;;1.23;0.50;;;;;;;10.82;66.60;100092.66;10417309;28;20106;-65
2023/12/29 03:28:01;;;;;;;2.67;0.60;;;;;;;10.76;66.88;100090.66;10417543;28;20053;-63
2023/12/29 03:33:03;;;;;;;1.05;0.45;;;;;;;10.69;67.03;100070.94;10416868;28;20130;-63
2023/12/29 03:38:07;;;;;;;0.88;0.40;;;;;;;10.68;66.69;100055.81;10420546;28;20155;-63
2023/12/29 03:43:08;;;;;;;3.40;1.50;;;;;;;10.57;66.70;100043.66;10411900;28;20141;-64
2023/12/29 03:48:10;;;;;;;1.60;1.10;;;;;;;10.52;67.03;100011.97;10415208;28;20049;-65
2023/12/29 03:53:12;;;;;;;1.50;0.60;;;;;;;10.50;67.09;100014.00;10413603;28;20099;-64
2023/12/29 03:58:13;;;;;;;2.08;0.70;;;;;;;10.42;66.98;100018.63;10415631;28;20041;-64
2023/12/29 04:03:15;;;;;;;0.77;0.65;;;;;;;10.40;67.29;100008.03;10415657;28;20052;-65
2023/12/29 04:08:16;;;;;;;1.98;0.77;;;;;;;10.36;67.51;100013.97;10416397;28;20038;-70
2023/12/29 04:13:17;;;;;;;2.55;0.60;;;;;;;10.37;67.50;100016.50;10413650;28;20073;-67
2023/12/29 04:18:21;;;;;;;2.15;0.63;;;;;;;10.40;67.33;100004.53;10412053;28;20404;-69
2023/12/29 04:23:22;;;;;;;1.83;0.50;;;;;;;10.37;67.37;99992.31;10414535;28;20057;-69
2023/12/29 04:28:23;;;;;;;2.75;0.40;;;;;;;10.36;67.13;100009.44;10417966;28;20136;-70
2023/12/29 04:33:25;;;;;;;1.60;0.40;;;;;;;10.36;66.88;100033.59;10413188;28;20033;-67
2023/12/29 04:38:26;;;;;;;1.95;0.40;;;;;;;10.41;66.95;100025.03;10419714;28;20124;-69
2023/12/29 04:43:28;;;;;;;2.40;0.82;;;;;;;10.51;66.96;100039.03;10419127;28;20059;-69
2023/12/29 04:48:29;;;;;;;7.38;0.70;;;;;;;10.60;66.54;100039.75;10414077;28;20041;-70
2023/12/29 04:53:31;;;;;;;2.97;0.50;;;;;;;10.63;66.39;100023.28;10411266;28;20090;-68
2023/12/29 04:58:32;;;;;;;1.95;0.70;;;;;;;10.76;66.37;100011.88;10417290;28;20056;-69
2023/12/29 05:03:34;;;;;;;1.25;0.50;;;;;;;10.61;66.23;100014.56;10414565;28;20041;-70
2023/12/29 05:08:35;;;;;;;1.77;0.50;;;;;;;10.62;66.45;100035.03;10414276;28;20095;-69
2023/12/29 05:13:37;;;;;;;0.77;0.40;;;;;;;10.61;66.49;100020.78;10415303;28;20056;-68
2023/12/29 05:18:38;;;;;;;3.03;0.73;;;;;;;10.62;66.78;100024.28;10407300;28;20049;-64
2023/12/29 05:23:40;;;;;;;3.35;0.50;;;;;;;10.52;67.00;100014.66;10417184;28;20574;-63
2023/12/29 05:28:41;;;;;;;1.38;0.45;;;;;;;10.56;66.64;100030.41;10407888;28;20041;-64
2023/12/29 05:33:44;;;;;;;1.60;0.60;;;;;;;10.58;66.62;100031.88;10413967;28;20076;-63
2023/12/29 05:38:46;;;;;;;1.15;0.43;;;;;;;10.64;66.43;100036.53;10413845;28;20533;-64
2023/12/29 05:43:48;;;;;;;2.03;0.50;;;;;;;10.74;66.28;100030.03;10411644;28;20049;-64
2023/12/29 05:48:52;;;;;;;1.92;0.60;;;;;;;10.73;66.23;100010.41;10413130;28;20065;-64
2023/12/29 05:53:53;;;;;;;2.40;0.60;;;;;;;10.83;66.02;100027.06;10421848;28;20056;-63
2023/12/29 05:58:55;;;;;;;1.42;0.50;;;;;;;10.93;66.00;100017.91;10416272;28;20045;-64
2023/12/29 06:03:57;;;;;;;3.00;0.60;;;;;;;11.01;65.29;100015.09;10415635;28;20127;-64
2023/12/29 06:08:58;;;;;;;2.22;0.55;;;;;;;11.05;65.37;100014.53;10416943;28;20543;-64
2023/12/29 06:14:00;;;;;;;2.20;0.40;;;;;;;11.10;65.49;100019.38;10420827;28;20056;-64
2023/12/29 06:19:01;;;;;;;3.20;0.80;;;;;;;11.20;65.10;100019.91;10418126;28;20046;-64
2023/12/29 06:24:03;;;;;;;1.30;0.50;;;;;;;11.24;65.15;100029.28;10422666;28;20048;-65
2023/12/29 06:29:04;;;;;;;1.60;0.40;;;;;;;11.26;64.64;100040.69;10422767;28;20060;-61
2023/12/29 06:34:06;;;;;;;2.90;0.70;;;;;;;11.47;63.96;100044.44;10419484;28;20059;-63
2023/12/29 06:39:07;;;;;;;0.70;0.40;;;;;;;11.47;64.12;100045.28;10417876;28;20472;-60
2023/12/29 06:44:09;;;;;;;2.70;0.60;;;;;;;11.51;64.37;100041.19;10423243;28;20052;-62
2023/12/29 06:49:10;;;;;;;1.10;0.40;;;;;;;11.47;64.15;100044.44;10417236;28;20093;-61
2023/12/29 06:54:12;;;;;;;1.13;0.50;;;;;;;11.49;64.35;100020.84;10417004;28;20049;-63
2023/12/29 06:59:13;;;;;;;2.47;0.57;;;;;;;11.50;63.93;100027.91;10426843;28;20048;-60
2023/12/29 07:04:15;;;;;;;2.88;0.63;;;;;;;11.49;64.42;100027.09;10415428;28;20084;-60
2023/12/29 07:09:16;;;;;;;1.42;0.50;;;;;;;11.60;63.97;100016.84;10417770;28;20049;-61
2023/12/29 07:14:18;;;;;;;3.22;0.55;;;;;;;11.59;64.21;100017.84;10418510;28;20040;-62
2023/12/29 07:19:19;;;;;;;2.97;0.50;;;;;;;11.65;64.31;100012.56;10422000;28;20045;-62
2023/12/29 07:24:21;;;;;;;3.15;0.55;;;;;;;11.61;64.31;100005.03;10418511;28;20510;-64
2023/12/29 07:29:23;;;;;;;1.40;0.75;;;;;;;11.65;64.15;100014.38;10419407;28;20101;-66
2023/12/29 07:34:25;;;;;;;3.25;0.60;;;;;;;11.65;64.72;100007.16;10425298;28;20053;-63
2023/12/29 07:39:26;;;;;;;3.33;0.60;;;;;;;11.66;64.45;100011.50;10416823;28;20052;-69
2023/12/29 07:44:28;;;;;;;1.67;0.60;;;;;;;11.70;64.58;100012.78;10423316;28;20037;-68
2023/12/29 07:49:29;;;;;;;1.52;0.63;;;;;;;11.80;64.95;100003.56;10418793;28;20048;-71
2023/12/29 07:54:31;;;;;;;1.80;0.50;;;;;;;11.79;64.91;100010.81;10419571;28;20468;-69
2023/12/29 07:59:32;;;;;;;3.35;0.40;;;;;;;11.84;65.04;100016.44;10417168;28;20033;-70
2023/12/29 08:04:35;;;;;;;3.20;0.60;;;;;;;11.93;64.53;100013.66;10428336;28;20409;-70
2023/12/29 08:09:36;;;;;;;1.58;0.80;;;;;;;11.97;65.10;100025.75;10416392;28;20084;-70
2023/12/29 08:14:38;;;;;;;2.00;0.60;;;;;;;12.03;64.44;100027.66;10414696;28;20060;-66
2023/12/29 08:19:40;;;;;;;1.35;0.40;;;;;;;12.04;64.82;100032.81;10425679;28;20436;-70
2023/12/29 08:24:44;;;;;;;1.58;0.57;;;;;;;12.09;64.85;100032.28;10421126;28;20049;-68
2023/12/29 08:29:46;;;;;;;2.67;0.60;;;;;;;12.13;64.78;100041.63;10423851;28;20087;-68
2023/12/29 08:34:47;;;;;;;4.05;0.75;;;;;;;12.24;64.22;100032.16;10420314;28;20037;-68
2023/12/29 08:39:49;;;;;;;1.42;0.52;;;;;;;12.23;64.24;100044.81;10416763;28;20053;-70
2023/12/29 08:44:51;;;;;;;0.75;0.50;;;;;;;12.26;64.64;100032.81;10419320;28;20456;-69
2023/12/29 08:49:54;;;;;;;1.70;0.30;;;;;;;12.38;64.40;100035.81;10414635;28;20041;-70
2023/12/29 08:54:55;;;;;;;1.65;0.63;;;;;;;12.48;64.24;100025.53;10413727;28;20057;-69
2023/12/29 08:59:57;;;;;;;1.23;0.50;;;;;;;12.51;64.14;100019.72;10411407;28;20073;-69
2023/12/29 09:04:58;;;;;;;1.05;0.40;;;;;;;12.54;64.07;100016.66;10411869;28;20539;-70
2023/12/29 09:10:02;;;;;;;1.13;0.47;;;;;;;12.55;63.60;100018.31;10411821;28;20077;-67
2023/12/29 09:15:04;;;;;;;0.90;0.38;;;;;;;12.57;63.57;100013.56;10415345;28;20111;-69
2023/12/29 09:20:07;;;;;;;6.05;1.10;;;;;;;12.61;63.37;100008.59;10414808;28;20046;-67
2023/12/29 09:25:12;;;;;;;1.15;0.40;;;;;;;12.63;63.44;100015.44;10422848;28;20198;-70
2023/12/29 09:30:14;;;;;;;5.63;0.60;;;;;;;12.63;63.00;100015.44;10422988;28;20054;-69
2023/12/29 09:35:17;;;;;;;2.60;0.30;;;;;;;12.63;62.70;100023.53;10422693;28;20045;-69
2023/12/29 09:40:18;;;;;;;0.70;0.20;;;;;;;12.64;62.59;100019.00;10425558;28;20497;-67
2023/12/29 09:45:24;;;;;;;2.05;0.25;;;;;;;12.67;62.48;100024.81;10429479;28;20098;-70
2023/12/29 09:50:27;;;;;;;3.25;0.30;;;;;;;12.67;62.57;100013.19;10423564;28;20045;-69
2023/12/29 09:55:29;;;;;;;3.08;0.30;;;;;;;12.60;62.35;100023.09;10418764;28;20043;-65
2023/12/29 10:00:31;;;;;;;1.85;0.40;;;;;;;12.67;62.53;100032.06;10416900;28;20376;-65
2023/12/29 10:05:32;;;;;;;0.88;0.30;;;;;;;12.67;62.42;100042.88;10425345;28;20079;-65
2023/12/29 10:10:37;;;;;;;3.22;0.30;;;;;;;12.66;62.21;100030.44;10428015;28;20073;-65
2023/12/29 10:15:45;;;;;;;3.38;0.30;;;;;;;12.67;62.22;100029.38;10424706;28;20053;-65
2023/12/29 10:20:49;;;;;;;1.95;0.90;;;;;;;12.65;62.35;100020.66;10419150;28;20041;-65
2023/12/29 10:25:52;;;;;;;2.63;0.30;;;;;;;12.70;62.42;100037.09;10423164;28;20056;-65
2023/12/29 10:30:54;;;;;;;4.65;0.75;;;;;;;12.69;62.69;100043.50;10421294;28;20221;-66
2023/12/29 10:36:06;;;;;;;1.67;0.40;;;;;;;12.72;62.56;100028.78;10418296;28;20045;-66
2023/12/29 10:41:18;;;;;;;3.17;0.85;;;;;;;12.63;62.80;100031.63;10423900;28;20056;-65
2023/12/29 10:46:20;;;;;;;1.25;0.20;;;;;;;12.67;62.95;100029.38;10419170;28;20041;-66
2023/12/29 10:51:29;;;;;;;1.95;0.30;;;;;;;12.65;62.85;100028.75;10423383;28;20144;-66
2023/12/29 10:56:33;;;;;;;1.85;0.30;;;;;;;12.69;63.06;100032.72;10417018;28;20036;-65
2023/12/29 11:01:36;;;;;;;2.50;0.20;;;;;;;12.63;63.31;100026.25;10421758;28;20053;-66
2023/12/29 11:06:43;;;;;;;2.95;0.22;;;;;;;12.67;63.36;100024.00;10424090;28;20095;-64
2023/12/29 11:11:45;;;;;;;0.55;0.20;;;;;;;12.65;63.39;100016.09;10422299;28;20688;-63
2023/12/29 11:16:49;;;;;;;1.25;0.40;;;;;;;12.74;63.22;100013.22;10422191;28;20048;-65
2023/12/29 11:21:55;;;;;;;0.95;0.40;;;;;;;12.72;63.24;100012.59;10423324;28;20048;-64
2023/12/29 11:26:57;;;;;;;1.42;0.68;;;;;;;12.76;63.52;100012.03;10412100;28;20064;-63
2023/12/29 11:32:04;;;;;;;0.65;0.30;;;;;;;12.83;63.10;100025.53;10421486;28;20037;-66
2023/12/29 11:37:18;;;;;;;1.00;0.30;;;;;;;12.85;63.26;100002.72;10423556;28;20045;-65
2023/12/29 11:42:38;;;;;;;3.03;0.30;;;;;;;12.83;63.08;99996.69;10420765;28;20464;-64
2023/12/29 11:47:39;;;;;;;1.00;0.40;;;;;;;12.96;62.52;99981.63;10420926;28;20060;-66
2023/12/29 11:52:41;;;;;;;2.55;0.30;;;;;;;13.02;62.88;99987.03;10422089;28;20132;-67
2023/12/29 11:57:44;;;;;;;1.67;0.47;;;;;;;13.01;62.61;99980.00;10416989;28;20040;-65
2023/12/29 12:02:45;;;;;;;4.05;0.43;;;;;;;13.04;62.66;99973.34;10420443;28;20037;-63
2023/12/29 12:07:47;;;;;;;1.40;0.20;;;;;;;13.09;62.27;99978.94;10421077;28;20098;-64
2023/12/29 12:12:51;;;;;;;1.75;0.25;;;;;;;13.04;62.41;99973.34;10419747;28;20037;-65
2023/12/29 12:17:53;;;;;;;0.75;0.20;;;;;;;13.00;62.48;99964.81;10419899;28;20038;-70
2023/12/29 12:23:00;;;;;;;2.97;0.20;;;;;;;12.93;62.18;99958.56;10424141;28;20495;-71
2023/12/29 12:28:05;;;;;;;0.20;0.20;;;;;;;13.08;61.93;99959.25;10423567;28;20451;-68
2023/12/29 12:33:11;;;;;;;0.98;0.20;;;;;;;13.18;61.53;99939.97;10427716;28;20045;-69
2023/12/29 12:38:24;;;;;;;0.85;0.38;;;;;;;13.26;61.54;99931.69;10420988;28;20076;-70
2023/12/29 12:43:27;;;;;;;1.63;0.20;;;;;;;13.38;61.25;99945.44;10423310;28;20128;-68
2023/12/29 12:48:34;;;;;;;0.88;0.10;;;;;;;13.42;61.46;99943.19;10434710;28;20108;-70
2023/12/29 12:53:40;;;;;;;1.58;0.20;;;;;;;13.49;61.20;99949.44;10426685;28;20052;-68
2023/12/29 12:58:42;;;;;;;1.77;0.20;;;;;;;13.42;61.32;99964.78;10420342;28;20062;-68
2023/12/29 13:03:45;;;;;;;1.60;0.40;;;;;;;13.40;61.06;99954.16;10425359;28;20045;-71
2023/12/29 13:08:51;;;;;;;3.55;0.30;;;;;;;13.41;61.31;99955.84;10421706;28;20033;-69
2023/12/29 13:13:56;;;;;;;1.60;0.70;;;;;;;13.29;61.60;99958.31;10421355;28;20052;-68
2023/12/29 13:19:22;;;;;;;0.22;0.20;;;;;;;13.24;61.78;99949.13;10418329;28;20053;-71
2023/12/29 13:24:25;;;;;;;0.43;0.20;;;;;;;13.23;62.14;99952.84;10427385;28;20049;-71
2023/12/29 13:29:29;;;;;;;0.30;0.20;;;;;;;13.21;61.90;99941.41;10415511;28;20052;-69
2023/12/29 13:34:36;;;;;;;0.30;0.20;;;;;;;13.18;61.61;99931.03;10411455;28;20056;-69
2023/12/29 13:39:56;;;;;;;3.63;0.20;;;;;;;13.18;61.77;99937.28;10414009;28;20041;-69
2023/12/29 13:44:59;;;;;;;0.63;0.20;;;;;;;13.11;61.79;99931.00;10408018;28;20056;-69
2023/12/29 13:50:01;;;;;;;1.15;0.20;;;;;;;13.13;61.96;99938.91;10426459;28;20029;-67
2023/12/29 13:55:04;;;;;;;1.75;0.25;;;;;;;13.10;61.89;99932.06;10394495;23;20045;-88
2023/12/29 14:00:24;;;;;;;0.70;0.20;;;;;;;13.11;61.87;99922.91;10407605;28;20072;-88
2023/12/29 14:05:49;;;;;;;1.80;0.20;;;;;;;13.08;62.21;99928.72;10424249;28;20146;-87
2023/12/29 14:10:50;;;;;;;0.15;0.10;;;;;;;13.01;62.39;99925.16;10364423;28;20111;-89
2023/12/29 14:21:30;;;;;;;0.67;0.10;;;;;;;13.02;62.56;99907.97;10670353;22;20070;-92
2023/12/29 14:26:34;;;;;;;2.38;0.95;;;;;;;13.03;62.45;99913.16;10500576;28;20074;-90
2023/12/29 14:31:37;;;;;;;0.38;0.10;;;;;;;13.12;62.24;99919.19;10572898;23;20060;-93
2023/12/29 14:36:41;;;;;;;0.30;0.10;;;;;;;13.07;62.11;99922.50;10449994;28;20095;-91
2023/12/29 14:41:45;;;;;;;0.28;0.13;;;;;;;13.09;62.29;99935.78;10452896;28;20128;-90
2023/12/29 14:46:46;;;;;;;1.58;0.10;;;;;;;13.02;62.35;99935.78;10444442;28;20141;-89
2023/12/29 14:51:48;;;;;;;0.10;0.10;;;;;;;13.05;62.16;99948.00;10413773;28;20068;-89
2023/12/29 14:56:54;;;;;;;1.42;0.20;;;;;;;12.99;62.46;99936.16;10420898;28;20041;-88
2023/12/29 15:02:09;;;;;;;0.50;0.10;;;;;;;12.96;62.92;99947.38;10453287;28;20049;-89
2023/12/29 15:07:10;;;;;;;0.20;0.03;;;;;;;12.86;63.13;99944.22;10430380;28;20507;-90
2023/12/29 15:12:12;;;;;;;0.85;0.63;;;;;;;12.83;63.18;99958.91;10419028;28;20041;-90
2023/12/29 15:17:14;;;;;;;0.30;0.17;;;;;;;12.80;63.34;99934.25;10417527;28;20049;-90
2023/12/29 15:22:16;;;;;;;0.85;0.20;;;;;;;12.84;63.38;99938.19;10419178;28;20046;-89
2023/12/29 15:27:18;;;;;;;0.68;0.15;;;;;;;12.83;63.34;99937.34;10430251;22;20060;-66
2023/12/29 15:32:19;;;;;;;3.33;0.65;;;;;;;12.81;63.58;99927.78;10440254;28;20040;-68
2023/12/29 15:37:21;;;;;;;1.50;0.17;;;;;;;12.79;63.34;99919.91;10469750;28;20081;-69
2023/12/29 15:42:22;;;;;;;2.50;0.65;;;;;;;12.70;63.60;99940.81;10454145;28;20055;-69
2023/12/29 15:47:24;;;;;;;2.10;0.30;;;;;;;12.64;63.28;99911.13;10462768;28;20040;-69
2023/12/29 15:52:28;;;;;;;1.60;0.38;;;;;;;12.64;63.49;99906.56;10438889;28;20036;-69
2023/12/29 15:57:29;;;;;;;1.10;0.30;;;;;;;12.52;63.84;99908.19;10465187;28;20071;-69
2023/12/29 16:02:31;;;;;;;0.30;0.20;;;;;;;12.33;64.67;99915.13;10422110;28;20053;-62
2023/12/29 16:07:32;;;;;;;5.00;0.75;;;;;;;12.19;65.25;99900.72;10451954;28;20051;-63
2023/12/29 16:12:34;;;;;;;0.75;0.20;;;;;;;11.96;66.75;99902.84;10454049;28;20040;-62
2023/12/29 16:17:37;;;;;;;2.40;0.20;;;;;;;12.01;66.50;99900.41;10454169;28;20407;-62
2023/12/29 16:22:38;;;;;;;0.80;0.30;;;;;;;12.04;66.21;99898.13;10460158;28;20048;-61
2023/12/29 16:27:43;;;;;;;0.43;0.20;;;;;;;12.02;66.53;99891.28;10463673;28;20041;-63
2023/12/29 16:32:44;;;;;;;2.20;0.30;;;;;;;11.99;66.71;99883.59;10446062;28;20048;-62
2023/12/29 16:37:46;;;;;;;1.92;0.20;;;;;;;11.96;66.81;99895.59;10451807;28;20052;-61
2023/12/29 16:42:47;;;;;;;3.60;0.20;;;;;;;11.93;66.83;99895.13;10448316;28;20043;-63
2023/12/29 16:47:49;;;;;;;0.93;0.22;;;;;;;12.00;66.82;99896.84;10452837;28;20058;-63
2023/12/29 16:52:50;;;;;;;1.33;0.20;;;;;;;12.01;66.57;99889.63;10454720;28;20040;-63
2023/12/29 16:57:52;;;;;;;1.50;0.30;;;;;;;12.01;66.27;99890.44;10447970;28;20494;-64
2023/12/29 17:02:55;;;;;;;3.90;0.40;;;;;;;12.07;66.04;99895.06;10438787;28;20041;-63
2023/12/29 17:07:57;;;;;;;2.55;0.57;;;;;;;12.13;65.99;99885.34;10452236;28;20067;-63
2023/12/29 17:12:58;;;;;;;0.50;0.25;;;;;;;12.18;66.01;99879.34;10449802;28;20045;-61
2023/12/29 17:18:00;;;;;;;4.00;0.80;;;;;;;12.18;65.57;99885.56;10447890;28;20048;-63
2023/12/29 17:23:02;;;;;;;2.75;0.40;;;;;;;12.18;65.57;99874.78;10451208;28;20391;-63
2023/12/29 17:28:04;;;;;;;2.95;0.30;;;;;;;12.21;65.42;99877.09;10452837;28;20139;-63
2023/12/29 17:33:05;;;;;;;3.92;0.30;;;;;;;12.24;65.36;99892.03;10457121;28;20486;-62
2023/12/29 17:38:07;;;;;;;3.33;0.40;;;;;;;12.27;65.01;99888.97;10447246;28;20032;-61
2023/12/29 17:43:09;;;;;;;1.33;0.20;;;;;;;12.33;64.68;99887.34;10443826;28;20048;-65
2023/12/29 17:48:10;;;;;;;3.53;0.40;;;;;;;12.42;64.50;99883.44;10463202;28;20106;-63
2023/12/29 17:53:12;;;;;;;1.85;0.47;;;;;;;12.42;64.31;99876.19;10444585;28;20139;-60
2023/12/29 17:58:13;;;;;;;1.98;0.52;;;;;;;12.42;64.01;99889.66;10457364;28;20044;-62
2023/12/29 18:03:15;;;;;;;0.55;0.20;;;;;;;12.41;64.25;99888.00;10442489;28;20114;-63
2023/12/29 18:08:18;;;;;;;1.08;0.30;;;;;;;12.44;63.92;99887.59;10439760;28;20048;-65
2023/12/29 18:13:20;;;;;;;0.85;0.20;;;;;;;12.45;63.61;99891.94;10458515;28;20373;-66
2023/12/29 18:18:22;;;;;;;1.77;0.25;;;;;;;12.42;63.64;99894.22;10439356;28;20047;-65
2023/12/29 18:23:23;;;;;;;2.83;0.40;;;;;;;12.45;63.69;99901.91;10441004;28;20138;-66
2023/12/29 18:28:25;;;;;;;3.60;0.30;;;;;;;12.39;63.33;99900.84;10438370;28;20423;-66
2023/12/29 18:33:26;;;;;;;3.85;0.43;;;;;;;12.46;63.48;99907.09;10442078;28;20138;-64
2023/12/29 18:38:30;;;;;;;1.83;0.30;;;;;;;12.52;62.92;99902.78;10459369;28;20062;-64
2023/12/29 18:43:31;;;;;;;2.03;0.28;;;;;;;12.48;63.16;99915.00;10457340;28;20041;-64
2023/12/29 18:48:33;;;;;;;2.42;0.38;;;;;;;12.46;63.17;99915.19;10433863;28;20048;-65
2023/12/29 18:53:35;;;;;;;2.85;0.40;;;;;;;12.19;64.40;99906.13;10439705;28;20044;-65
2023/12/29 18:58:36;;;;;;;3.00;0.63;;;;;;;11.96;64.81;99909.06;10434964;28;20041;-64
2023/12/29 19:03:38;;;;;;;3.70;0.40;;;;;;;11.81;65.42;99902.88;10432735;28;20051;-64
2023/12/29 19:08:39;;;;;;;2.20;0.40;;;;;;;11.70;65.68;99909.66;10427736;28;20048;-64
2023/12/29 19:13:41;;;;;;;1.27;0.30;;;;;;;11.73;65.77;99911.13;10462014;28;20033;-63
2023/12/29 19:18:43;;;;;;;1.27;0.30;;;;;;;11.76;66.05;99908.88;10452357;28;20060;-65
2023/12/29 19:23:44;;;;;;;2.13;0.50;;;;;;;11.75;66.07;99922.53;10441345;28;20124;-65
2023/12/29 19:28:46;;;;;;;3.50;1.23;;;;;;;11.62;66.81;99934.03;10463573;28;20049;-64
2023/12/29 19:33:47;;;;;;;1.40;0.40;;;;;;;11.56;66.83;99924.03;10459928;28;20052;-64
2023/12/29 19:38:49;;;;;;;0.90;0.70;;;;;;;11.16;68.30;99945.97;10455487;28;20033;-64
2023/12/29 19:43:51;;;;;;;2.78;0.45;;;;;;;11.02;69.25;99925.31;10448289;28;20040;-63
2023/12/29 19:48:52;;;;;;;2.17;0.60;;;;;;;11.01;69.28;99927.19;10450955;28;20048;-63
2023/12/29 19:53:55;;;;;;;1.92;0.30;;;;;;;11.10;69.17;99911.78;10459003;28;20133;-63
2023/12/29 19:58:57;;;;;;;1.45;0.47;;;;;;;11.18;68.98;99929.66;10458648;28;20125;-63
2023/12/29 20:03:58;;;;;;;3.58;0.50;;;;;;;11.15;69.52;99932.72;10457976;28;20423;-64
2023/12/29 20:09:00;;;;;;;2.67;0.50;;;;;;;11.13;69.72;99930.22;10457221;28;20102;-63
2023/12/29 20:14:03;;;;;;;4.07;0.60;;;;;;;11.16;69.36;99945.97;10451019;28;20052;-62
2023/12/29 20:19:04;;;;;;;3.72;0.50;;;;;;;10.97;70.17;99935.81;10454028;28;20080;-63
2023/12/29 20:24:09;;;;;;;1.85;0.40;;;;;;;10.93;70.44;99918.41;10453418;28;20080;-63
2023/12/29 20:29:11;;;;;;;4.32;0.20;;;;;;;10.94;70.33;99920.91;10454435;28;20080;-60
2023/12/29 20:34:12;;;;;;;1.50;0.50;;;;;;;10.96;70.52;99915.31;10454466;28;20055;-59
2023/12/29 20:39:14;;;;;;;1.10;0.30;;;;;;;10.93;70.81;99900.41;10454035;28;20056;-61
2023/12/29 20:44:16;;;;;;;3.42;0.60;;;;;;;10.96;70.77;99910.78;10453560;28;20574;-61
2023/12/29 20:49:18;;;;;;;0.40;0.30;;;;;;;11.01;70.31;99913.72;10450081;28;20056;-60
2023/12/29 20:54:21;;;;;;;1.92;0.50;;;;;;;10.93;70.54;99902.28;10453486;28;20519;-60
2023/12/29 20:59:23;;;;;;;3.13;0.52;;;;;;;10.85;71.41;99905.91;10455681;28;20040;-60
2023/12/29 21:04:24;;;;;;;1.10;0.32;;;;;;;10.90;71.35;99907.00;10450459;28;20132;-61
2023/12/29 21:09:26;;;;;;;0.68;0.40;;;;;;;10.82;71.51;99909.81;10458877;28;20143;-61
2023/12/29 21:14:27;;;;;;;2.03;0.35;;;;;;;10.79;71.79;99902.09;10455657;28;20048;-59
2023/12/29 21:19:28;;;;;;;2.20;0.40;;;;;;;10.75;71.64;99887.38;10458456;28;20048;-61
2023/12/29 21:24:30;;;;;;;4.50;0.90;;;;;;;10.75;71.86;99903.50;10460091;28;20049;-59
2023/12/29 21:29:31;;;;;;;4.95;0.55;;;;;;;10.64;72.65;99903.97;10466640;28;20359;-60
2023/12/29 21:34:33;;;;;;;4.93;0.80;;;;;;;10.52;73.13;99879.44;10460122;28;20384;-62
2023/12/29 21:39:35;;;;;;;6.22;0.90;;;;;;;10.66;73.16;99897.41;10477372;28;20127;-63
2023/12/29 21:44:36;;;;;;;3.25;0.50;;;;;;;10.67;73.37;99901.75;10475458;28;20034;-62
2023/12/29 21:49:39;;;;;;;1.15;0.40;;;;;;;10.70;73.53;99905.91;10470749;28;20056;-63
2023/12/29 21:54:44;;;;;;;1.92;0.40;;;;;;;10.67;73.20;99917.06;10475189;28;20047;-62
2023/12/29 21:59:46;;;;;;;2.42;0.70;;;;;;;10.75;73.03;99927.69;10462574;28;20436;-63
2023/12/29 22:04:47;;;;;;;6.07;0.50;;;;;;;10.76;72.98;99923.97;10485335;28;20047;-63
2023/12/29 22:09:49;;;;;;;2.30;0.40;;;;;;;10.82;73.27;99914.31;10476777;28;20098;-61
2023/12/29 22:14:50;;;;;;;2.08;0.30;;;;;;;10.84;73.03;99937.34;10465431;28;20033;-62
2023/12/29 22:19:52;;;;;;;1.25;0.40;;;;;;;10.88;73.14;99935.94;10469447;28;20515;-61
2023/12/29 22:24:54;;;;;;;2.80;0.50;;;;;;;10.91;72.56;99932.84;10469223;28;20558;-62
2023/12/29 22:29:57;;;;;;;6.03;0.50;;;;;;;10.88;72.80;99948.53;10461774;28;20137;-61
2023/12/29 22:34:59;;;;;;;2.35;0.32;;;;;;;10.88;72.87;99948.53;10459306;28;20749;-61
2023/12/29 22:40:00;;;;;;;1.63;0.50;;;;;;;10.88;72.67;99935.94;10465203;28;20109;-61
2023/12/29 22:45:02;;;;;;;3.25;0.45;;;;;;;10.86;73.10;99940.69;10459204;28;20561;-64
2023/12/29 22:50:05;;;;;;;2.45;0.45;;;;;;;10.85;72.98;99944.38;10464596;28;20546;-65
2023/12/29 22:55:07;;;;;;;3.10;0.80;;;;;;;10.77;72.63;99916.78;10461829;28;20051;-65
2023/12/29 23:00:10;;;;;;;2.95;0.70;;;;;;;10.63;72.85;99932.72;10461365;28;20573;-65
2023/12/29 23:05:13;;;;;;;2.60;0.70;;;;;;;10.57;73.23;99930.78;10463197;28;20033;-65
2023/12/29 23:10:17;;;;;;;2.45;0.68;;;;;;;10.51;73.52;99944.97;10460943;28;20063;-64
2023/12/29 23:15:19;;;;;;;1.60;0.43;;;;;;;10.64;73.15;99955.91;10460822;28;20116;-65
2023/12/29 23:20:20;;;;;;;3.33;0.40;;;;;;;10.61;73.24;99950.88;10459814;28;20467;-64
2023/12/29 23:25:21;;;;;;;3.45;0.57;;;;;;;10.57;73.30;99960.34;10446868;28;20044;-64